AirNav   Duncan Aviation - Near you to keep you flying
 
 598 users online  

37CL Lyall Airport
Escondido, California, USA

GOING TO ESCONDIDO?


FAA INFORMATION EFFECTIVE 03 NOVEMBER 2022

Location

FAA Identifier: 37CL
Lat/Long: 33-19-28.1220N 116-59-25.0980W
33-19.468700N 116-59.418300W
33.3244783,-116.9903050
(estimated)
Elevation: 925 ft. / 282 m (estimated)
Variation: 13E (1985)
From city: 13 miles N of ESCONDIDO, CA
Time zone: UTC -8 (UTC -7 during Daylight Saving Time)
Zip code: 92061

Airport Operations

Airport use: Private use. Permission required prior to landing
Activation date: 01/1968
Control tower: no
ARTCC: LOS ANGELES CENTER
FSS: SAN DIEGO FLIGHT SERVICE STATION
Attendance: UNATNDD
Wind indicator: yes
Segmented circle: no

Airport Communications

WX AWOS-3P at L18 (13 nm W): 118.425 (760-723-6073)
WX AWOS-3 at F70 (17 nm NW): 119.025 (951-696-1018)
WX ASOS at RNM (18 nm S): PHONE 760-789-7699
WX ASOS at CRQ (19 nm SW): PHONE 760-930-0864
WX ASOS at OKB (19 nm W): 127.8 (760-439-9683)

Nearby radio navigation aids

VOR radial/distance  VOR name  Freq  Var
OCNr062/22.0OCEANSIDE VORTAC115.3015E
JLIr284/23.1JULIAN VORTAC114.0015E
HDFr146/(28.8)HOMELAND VOR112.0514E
MZBr005/34.6MISSION BAY VORTAC117.8015E

Airport Services

Airframe service: NONE
Powerplant service: NONE

Runway Information

Runway 4/22

Dimensions: 1700 x 50 ft. / 518 x 15 m
Surface: treated/dirt
RUNWAY 4  RUNWAY 22
Traffic pattern: leftleft
Obstructions: pline, marked, 600 ft. from runwaynone

Airport Ownership and Management from official FAA records

Ownership: Privately-owned
Owner: LYALL ENTERPRISES
15524 HWY 76
PAUMA VALLEY, CA 92061
Phone (760) 742-3538
Manager: WARREN C LYALL
15524 HWY 76
PAUMA VALLEY, CA 92061
Phone 760-855-3637

Airport Operational Statistics

Aircraft based on the field: 1
Single engine airplanes: 1
    

Additional Remarks

TKOF ON RWY 22 AND LAND ON RWY 04.
FOR CD CTC LOS ANGELES ARTCC AT 661-575-2079.

Instrument Procedures

There are no published instrument procedures at 37CL.

Some nearby airports with instrument procedures:

L18 - Fallbrook Community Airpark (13 nm W)
F70 - French Valley Airport (17 nm NW)
KRNM - Ramona Airport (18 nm S)
KNFG - Camp Pendleton MCAS (Munn Field) Airport (18 nm W)
KCRQ - Mc Clellan-Palomar Airport (19 nm SW)
KOKB - Bob Maxwell Memorial Airfield (19 nm W)
 
Loc | Ops | Rwys | IFR | FBO | Links
Com | Nav | Svcs | Stats | Notes

Luxivair - San Bernardino International Airport
 
Area around 37CL (Lyall Airport)
 
Road maps at: MapQuest Bing Google
 
Aerial photo
No photo
 
Sectional chart

 
Airport distance calculator
Flying to Lyall Airport? Find the distance to fly.

From to 37CL

Sunrise and sunset
Times for 28-Nov-2022
 Local
(UTC-8)
 Zulu
(UTC)
Morning civil twilight06:0514:05
Sunrise06:3214:32
Sunset16:4000:40
Evening civil twilight17:0701:07

Current date and time
Zulu (UTC)  28-Nov-2022 11:31:37
Local (UTC-8)  28-Nov-2022 03:31:37
 
METAR
KL18 
13nm W 
281115Z AUTO 00000KT 10SM CLR 10/09 A2997 RMK AO2
KF70 
17nm NW 
281115Z AUTO 00000KT 10SM OVC004 09/08 A2996 RMK AO2
KNFG 
17nm W 
281052Z AUTO 00000KT 10SM OVC021 11/08 A2997 RMK AO2 SLP148 T01060083 $
KRNM 
18nm S 
281102Z AUTO 24004KT 2 1/2SM BR OVC004 09/08 A2996 RMK AO2 T00890078
KCRQ 
19nm SW 
281053Z AUTO 11003KT 10SM OVC020 13/11 A2995 RMK AO2 SLP141 T01330106
KOKB 
19nm W 
281052Z AUTO 00000KT 10SM FEW017 OVC024 11/07 A2996 RMK AO2 SLP145 T01060072
KNXF 
23nm W 
281056Z AUTO 10SM 12/10 A2996 RMK AO2 SLP231 T01220100 PWINO $
KHMT 
25nm N 
281115Z AUTO 00000KT 10SM CLR 07/04 A2996 RMK AO2 T00650040
TAF
KNFG 
17nm W 
2715/2815 VRB03KT 9999 SKC QNH3003INS TEMPO 2719/2800 26008KT FM280130 VRB03KT 9999 SCT150 BKN035 QNH3005INS LAST NO AMDS AFT 2715/ NEXT 2815 T18/2720Z T10/2815Z
KCRQ 
19nm SW 
280523Z 2806/2906 VRB04KT P6SM SCT010 BKN250 TEMPO 2806/2808 BKN010 FM280800 VRB04KT P6SM BKN010 FM281000 VRB03KT P6SM VCSH OVC014 FM281400 VRB04KT P6SM OVC016 FM281900 22008KT P6SM BKN020 FM290200 22005KT P6SM OVC025
NOTAMs
Click for the latest NOTAMs
NOTAMs are issued by the DoD/FAA and will open in a separate window not controlled by AirNav.

 

 
 

Would you like to see your business listed on this page?

 If your business provides an interesting product or service to pilots, flight crews, aircraft, or users of the Lyall Airport, you should consider listing it here.  To start the listing process, click on the button below
 
Add a business
 

Other Pages about Lyall Airport

Update a link
 
Copyright © AirNav, LLC. All rights reserved. Privacy Policy  Contact